createdAt,value
2019-06-27T00:02:04.683Z,90.20
2019-06-27T00:04:31.095Z,90.30
2019-06-27T00:06:57.323Z,90.30
2019-06-27T00:09:24.963Z,90.30
2019-06-27T00:11:51.339Z,90.30
2019-06-27T00:14:17.564Z,90.40
2019-06-27T00:16:43.803Z,90.40
2019-06-27T00:19:10.054Z,90.40
2019-06-27T00:21:36.285Z,90.40
2019-06-27T00:24:02.639Z,90.50
2019-06-27T00:26:28.870Z,90.50
2019-06-27T00:28:55.154Z,90.50
2019-06-27T00:31:21.393Z,90.50
2019-06-27T00:33:47.625Z,90.50
2019-06-27T00:36:13.887Z,90.50
2019-06-27T00:38:40.113Z,90.50
2019-06-27T00:41:06.870Z,90.50
2019-06-27T00:43:33.103Z,90.50
2019-06-27T00:45:59.462Z,90.40
2019-06-27T00:48:25.694Z,90.40
2019-06-27T00:50:52.043Z,90.40
2019-06-27T00:53:18.274Z,90.40
2019-06-27T00:55:44.516Z,90.40
2019-06-27T00:58:10.797Z,90.40
2019-06-27T01:00:37.514Z,90.40
2019-06-27T01:03:03.984Z,90.40
2019-06-27T01:05:30.237Z,90.40
2019-06-27T01:07:56.584Z,90.40
2019-06-27T01:10:23.725Z,90.40
2019-06-27T01:12:50.042Z,90.70
2019-06-27T01:15:16.399Z,90.40
2019-06-27T01:17:42.631Z,90.40
2019-06-27T01:20:11.087Z,90.40
2019-06-27T01:22:37.336Z,90.40
2019-06-27T01:25:05.674Z,90.30
2019-06-27T01:27:31.932Z,90.40
2019-06-27T01:29:58.173Z,90.40
2019-06-27T01:32:24.397Z,90.40
2019-06-27T01:34:50.759Z,90.40
2019-06-27T01:37:17.116Z,90.40
2019-06-27T01:39:43.372Z,90.40
2019-06-27T01:42:09.692Z,90.50
2019-06-27T01:44:44.016Z,90.50
2019-06-27T01:47:10.726Z,90.50
2019-06-27T01:49:36.998Z,90.50
2019-06-27T01:52:04.027Z,90.40
2019-06-27T01:54:30.323Z,90.40
2019-06-27T01:56:56.562Z,90.40
2019-06-27T01:59:22.896Z,90.50
2019-06-27T02:01:49.130Z,90.50
2019-06-27T02:04:15.645Z,90.50
2019-06-27T02:06:41.832Z,90.60
2019-06-27T02:09:08.091Z,90.70
2019-06-27T02:11:34.554Z,90.70
2019-06-27T02:14:02.677Z,90.80
2019-06-27T02:16:29.028Z,90.70
2019-06-27T02:18:56.193Z,90.80
2019-06-27T02:21:22.566Z,90.80
2019-06-27T02:23:49.246Z,90.80
2019-06-27T02:26:15.657Z,90.80
2019-06-27T02:28:41.913Z,90.70
2019-06-27T02:31:08.469Z,90.70
2019-06-27T02:33:34.707Z,90.60
2019-06-27T02:36:01.789Z,90.50
2019-06-27T02:38:28.165Z,90.50
2019-06-27T02:40:58.553Z,90.50
2019-06-27T02:43:22.568Z,90.50
2019-06-27T02:45:48.841Z,90.50
2019-06-27T02:48:15.150Z,90.50
2019-06-27T02:50:41.506Z,90.40
2019-06-27T02:53:07.741Z,90.40
2019-06-27T02:55:33.987Z,90.40
2019-06-27T02:58:00.258Z,90.40
2019-06-27T03:00:26.853Z,90.40
2019-06-27T03:02:53.609Z,90.30
2019-06-27T03:05:20.320Z,90.20
2019-06-27T03:07:46.769Z,90.00
2019-06-27T03:10:13.917Z,89.90
2019-06-27T03:12:40.163Z,89.50
2019-06-27T03:15:08.041Z,89.30
2019-06-27T03:17:34.272Z,89.20
2019-06-27T03:20:00.569Z,89.20
2019-06-27T03:22:26.819Z,89.00
2019-06-27T03:24:53.048Z,89.10
2019-06-27T03:27:19.276Z,89.10
2019-06-27T03:29:45.528Z,89.20
2019-06-27T03:32:11.752Z,89.20
2019-06-27T03:34:38.041Z,89.20
2019-06-27T03:37:04.326Z,89.50
2019-06-27T03:39:30.641Z,89.70
2019-06-27T03:41:56.895Z,89.80
2019-06-27T03:44:23.132Z,90.00
2019-06-27T03:46:49.688Z,90.00
2019-06-27T03:49:15.910Z,90.10
2019-06-27T03:51:42.293Z,90.20
2019-06-27T03:54:08.526Z,90.20
2019-06-27T03:56:34.875Z,90.20
2019-06-27T03:59:12.119Z,90.30
2019-06-27T04:01:29.275Z,90.40
2019-06-27T04:03:55.540Z,90.50
2019-06-27T04:06:21.775Z,90.60
2019-06-27T04:08:48.016Z,91.00
2019-06-27T04:11:14.438Z,90.70
2019-06-27T04:13:40.726Z,90.80
2019-06-27T04:16:06.974Z,90.90
2019-06-27T04:18:33.225Z,90.90
2019-06-27T04:20:59.567Z,91.10
2019-06-27T04:23:25.879Z,91.10
2019-06-27T04:25:52.194Z,91.10
2019-06-27T04:28:18.476Z,90.90
2019-06-27T04:30:44.744Z,91.20
2019-06-27T04:33:10.980Z,91.10
2019-06-27T04:35:37.325Z,90.60
2019-06-27T04:38:03.581Z,90.00
2019-06-27T04:40:29.827Z,89.20
2019-06-27T04:42:56.071Z,88.50
2019-06-27T04:45:22.387Z,87.70
2019-06-27T04:47:48.636Z,85.30
2019-06-27T04:50:15.180Z,84.90
2019-06-27T04:52:41.687Z,84.10
2019-06-27T04:55:08.376Z,82.20
2019-06-27T04:57:34.798Z,81.10
2019-06-27T05:00:01.269Z,79.70
2019-06-27T05:02:30.624Z,79.60
2019-06-27T05:04:55.650Z,78.40
2019-06-27T05:07:22.003Z,77.00
2019-06-27T05:09:48.268Z,73.00
2019-06-27T05:12:14.517Z,73.10
2019-06-27T05:14:40.799Z,68.60
2019-06-27T05:17:07.030Z,68.30
2019-06-27T05:19:33.514Z,66.90
2019-06-27T05:21:59.773Z,65.00
2019-06-27T05:24:26.345Z,63.90
2019-06-27T05:26:52.584Z,62.40
2019-06-27T05:29:19.061Z,60.60
2019-06-27T05:31:45.294Z,58.90
2019-06-27T05:34:11.573Z,58.00
2019-06-27T05:36:37.860Z,57.20
2019-06-27T05:39:05.203Z,54.80
2019-06-27T05:41:31.560Z,53.20
2019-06-27T05:43:57.784Z,52.30
2019-06-27T05:46:24.028Z,51.50
2019-06-27T05:48:50.260Z,50.90
2019-06-27T05:51:16.485Z,48.40
2019-06-27T05:53:45.586Z,49.00
2019-06-27T05:56:11.008Z,48.20
2019-06-27T05:58:37.237Z,45.20
2019-06-27T06:01:03.591Z,44.30
2019-06-27T06:03:29.806Z,46.00
2019-06-27T06:05:56.036Z,45.60
2019-06-27T06:08:22.261Z,45.70
2019-06-27T06:10:48.515Z,44.50
2019-06-27T06:13:14.759Z,43.90
2019-06-27T06:15:40.994Z,43.80
2019-06-27T06:18:07.215Z,41.90
2019-06-27T06:20:33.572Z,42.30
2019-06-27T06:22:59.789Z,42.60
2019-06-27T06:25:26.235Z,42.20
2019-06-27T06:27:52.470Z,41.60
2019-06-27T06:30:20.405Z,41.70
2019-06-27T06:32:46.647Z,41.50
2019-06-27T06:35:13.100Z,41.80
2019-06-27T06:37:39.535Z,40.90
2019-06-27T06:40:06.388Z,40.60
2019-06-27T06:42:32.618Z,40.70
2019-06-27T06:44:58.991Z,39.50
2019-06-27T06:47:25.273Z,39.90
2019-06-27T06:49:51.861Z,40.30
2019-06-27T06:52:18.086Z,40.90
2019-06-27T06:54:44.638Z,40.60
2019-06-27T06:57:10.865Z,40.10
2019-06-27T06:59:37.102Z,39.90
2019-06-27T07:02:03.413Z,40.10
2019-06-27T07:04:31.111Z,40.50
2019-06-27T07:06:57.949Z,40.10
2019-06-27T07:09:24.385Z,40.20
2019-06-27T07:11:50.628Z,40.90
2019-06-27T07:14:17.332Z,39.70
2019-06-27T07:16:43.642Z,39.40
2019-06-27T07:19:10.239Z,39.40
2019-06-27T07:21:36.473Z,40.20
2019-06-27T07:24:02.832Z,39.00
2019-06-27T07:26:29.925Z,39.30
2019-06-27T07:28:56.722Z,39.00
2019-06-27T07:31:23.161Z,38.90
2019-06-27T07:33:49.579Z,37.10
2019-06-27T07:36:15.958Z,37.80
2019-06-27T07:38:42.219Z,37.00
2019-06-27T07:41:08.460Z,38.10
2019-06-27T07:43:35.150Z,38.50
2019-06-27T07:46:01.752Z,39.10
2019-06-27T07:48:29.006Z,39.10
2019-06-27T07:50:55.676Z,38.60
2019-06-27T07:53:21.949Z,39.20
2019-06-27T07:55:48.181Z,39.10
2019-06-27T07:58:15.855Z,39.20
2019-06-27T08:00:42.262Z,39.60
2019-06-27T08:03:08.696Z,39.70
2019-06-27T08:05:35.254Z,40.60
2019-06-27T08:08:01.531Z,38.80
2019-06-27T08:10:27.986Z,39.70
2019-06-27T08:12:54.215Z,40.20
2019-06-27T08:15:20.844Z,40.10
2019-06-27T08:17:47.085Z,40.60
2019-06-27T08:20:14.515Z,40.70
2019-06-27T08:22:41.176Z,41.10
2019-06-27T08:25:09.365Z,41.60
2019-06-27T08:27:40.575Z,41.60
2019-06-27T08:30:10.971Z,42.00
2019-06-27T08:32:38.236Z,40.80
2019-06-27T08:35:06.203Z,41.50
2019-06-27T08:37:32.447Z,41.80
2019-06-27T08:39:58.678Z,41.10
2019-06-27T08:42:24.901Z,42.10
2019-06-27T08:44:51.179Z,41.40
2019-06-27T08:47:17.521Z,42.50
2019-06-27T08:49:43.768Z,41.70
2019-06-27T08:52:09.990Z,41.70
2019-06-27T08:54:36.416Z,41.90
2019-06-27T08:57:02.837Z,43.70
2019-06-27T08:59:29.064Z,44.30
2019-06-27T09:02:08.114Z,44.10
2019-06-27T09:04:23.468Z,44.90
2019-06-27T09:06:49.719Z,43.30
2019-06-27T09:09:15.966Z,42.80
2019-06-27T09:11:42.214Z,42.50
2019-06-27T09:14:08.567Z,42.10
2019-06-27T09:16:34.789Z,40.20
2019-06-27T09:19:01.283Z,39.60
2019-06-27T09:21:27.509Z,39.00
2019-06-27T09:23:53.766Z,39.40
2019-06-27T09:26:20.024Z,39.70
2019-06-27T09:28:46.261Z,40.10
2019-06-27T09:31:12.491Z,40.80
2019-06-27T09:33:38.731Z,40.10
2019-06-27T09:36:04.982Z,40.50
2019-06-27T09:38:47.095Z,40.20
2019-06-27T09:41:14.088Z,40.40
2019-06-27T09:43:41.982Z,41.40
2019-06-27T09:46:08.722Z,42.00
2019-06-27T09:48:35.016Z,40.60
2019-06-27T09:51:01.458Z,40.90
2019-06-27T09:53:28.252Z,40.80
2019-06-27T09:55:54.585Z,41.40
2019-06-27T09:58:20.857Z,41.60
2019-06-27T10:00:48.005Z,41.40
2019-06-27T10:03:14.429Z,41.70
2019-06-27T10:05:41.768Z,42.10
2019-06-27T10:08:08.013Z,41.80
2019-06-27T10:10:34.252Z,41.80
2019-06-27T10:13:00.594Z,41.60
2019-06-27T10:15:27.352Z,42.10
2019-06-27T10:17:53.643Z,42.40
2019-06-27T10:20:25.859Z,42.50
2019-06-27T10:22:58.311Z,43.50
2019-06-27T10:25:33.643Z,42.30
2019-06-27T10:28:09.760Z,43.50
2019-06-27T10:30:37.539Z,45.40
2019-06-27T10:33:04.132Z,45.30
2019-06-27T10:35:30.575Z,44.80
2019-06-27T10:37:56.809Z,45.10
2019-06-27T10:40:25.941Z,45.10
2019-06-27T10:42:55.546Z,45.50
2019-06-27T10:45:34.210Z,45.70
2019-06-27T10:48:00.519Z,46.40
2019-06-27T10:50:26.806Z,46.40
2019-06-27T10:52:53.344Z,46.90
2019-06-27T10:55:20.214Z,45.90
2019-06-27T10:57:46.688Z,47.80
2019-06-27T11:00:17.549Z,47.80
2019-06-27T11:02:44.097Z,47.80
2019-06-27T11:05:10.981Z,47.60
2019-06-27T11:07:40.604Z,49.00
2019-06-27T11:10:05.856Z,49.30
2019-06-27T11:12:52.762Z,49.90
2019-06-27T11:15:22.106Z,50.40
2019-06-27T11:17:49.313Z,50.90
2019-06-27T11:20:26.396Z,50.80
2019-06-27T11:22:53.625Z,50.00
2019-06-27T11:25:33.210Z,50.60
2019-06-27T11:27:59.472Z,50.20
2019-06-27T11:30:32.196Z,50.10
2019-06-27T11:32:59.703Z,49.60
2019-06-27T11:35:26.751Z,49.80
2019-06-27T11:37:52.997Z,50.30
2019-06-27T11:40:22.166Z,46.90
2019-06-27T11:42:48.399Z,49.10
2019-06-27T11:45:15.238Z,50.60
2019-06-27T11:47:45.377Z,50.40
2019-06-27T11:50:11.944Z,49.20
2019-06-27T11:52:47.235Z,48.50
2019-06-27T11:55:13.837Z,49.60
2019-06-27T11:57:40.076Z,51.80
2019-06-27T12:00:06.911Z,52.50
2019-06-27T12:02:33.571Z,52.50
2019-06-27T12:04:59.789Z,52.60
2019-06-27T12:07:27.087Z,51.30
2019-06-27T12:10:02.232Z,51.90
2019-06-27T12:12:37.260Z,52.60
2019-06-27T12:15:08.215Z,53.70
2019-06-27T12:17:34.438Z,53.90
2019-06-27T12:20:01.094Z,53.30
2019-06-27T12:22:27.883Z,53.80
2019-06-27T12:24:54.156Z,54.90
2019-06-27T12:27:20.842Z,54.50
2019-06-27T12:29:47.139Z,54.70
2019-06-27T12:32:13.809Z,55.40
2019-06-27T12:34:40.218Z,54.50
2019-06-27T12:37:06.629Z,54.70
2019-06-27T12:39:32.906Z,55.20
2019-06-27T12:41:59.137Z,55.80
2019-06-27T12:44:29.414Z,56.50
2019-06-27T12:46:56.717Z,56.60
2019-06-27T12:49:37.100Z,56.90
2019-06-27T12:51:51.964Z,57.20
2019-06-27T12:54:18.225Z,54.70
2019-06-27T12:56:44.494Z,54.00
2019-06-27T12:59:11.066Z,55.80
2019-06-27T13:01:37.297Z,56.50
2019-06-27T13:04:22.310Z,56.50
2019-06-27T13:06:46.485Z,57.00
2019-06-27T13:09:12.682Z,57.50
2019-06-27T13:11:38.901Z,57.30
2019-06-27T13:14:10.755Z,56.90
2019-06-27T13:16:38.570Z,57.60
2019-06-27T13:19:11.988Z,58.10
2019-06-27T13:21:45.036Z,57.50
2019-06-27T13:24:11.287Z,55.00
2019-06-27T13:26:37.783Z,55.00
2019-06-27T13:29:04.006Z,55.30
2019-06-27T13:31:30.274Z,55.50
2019-06-27T13:33:56.526Z,55.40
2019-06-27T13:36:33.026Z,54.60
2019-06-27T13:38:58.456Z,53.90
2019-06-27T13:41:24.703Z,54.00
2019-06-27T13:43:50.965Z,54.70
2019-06-27T13:46:17.226Z,55.30
2019-06-27T13:48:43.562Z,55.70
2019-06-27T13:51:09.858Z,55.40
2019-06-27T13:53:36.122Z,55.90
2019-06-27T13:56:06.636Z,55.60
2019-06-27T13:58:33.535Z,56.90
2019-06-27T14:01:11.096Z,56.80
2019-06-27T14:03:48.729Z,56.70
2019-06-27T14:06:12.006Z,56.60
2019-06-27T14:08:46.024Z,56.50
2019-06-27T14:11:12.210Z,56.50
2019-06-27T14:13:38.451Z,56.90
2019-06-27T14:16:05.951Z,54.90
2019-06-27T14:18:32.390Z,55.80
2019-06-27T14:20:58.641Z,56.50
2019-06-27T14:23:24.923Z,56.20
2019-06-27T14:25:56.391Z,56.40
2019-06-27T14:28:23.443Z,56.90
2019-06-27T14:30:49.684Z,55.80
2019-06-27T14:33:15.949Z,54.80
2019-06-27T14:35:42.184Z,56.10
2019-06-27T14:38:14.177Z,56.60
2019-06-27T14:40:42.578Z,57.20
2019-06-27T14:43:08.845Z,56.30
2019-06-27T14:45:35.113Z,57.60
2019-06-27T14:48:07.024Z,57.50
2019-06-27T14:50:34.986Z,57.50
2019-06-27T14:53:01.779Z,57.50
2019-06-27T14:55:32.231Z,57.50
2019-06-27T14:58:01.129Z,57.60
2019-06-27T15:00:31.277Z,57.90
2019-06-27T15:03:00.269Z,58.50
2019-06-27T15:05:32.594Z,58.10
2019-06-27T15:08:03.924Z,57.90
2019-06-27T15:10:31.053Z,58.10
2019-06-27T15:12:57.817Z,57.30
2019-06-27T15:15:24.410Z,57.60
2019-06-27T15:17:54.697Z,58.40
2019-06-27T15:20:21.962Z,57.90
2019-06-27T15:22:48.320Z,58.00
2019-06-27T15:25:14.746Z,58.00
2019-06-27T15:27:42.738Z,58.10
2019-06-27T15:30:13.380Z,58.00
2019-06-27T15:32:40.568Z,57.40
2019-06-27T15:35:07.224Z,57.60
2019-06-27T15:37:34.152Z,57.70
2019-06-27T15:40:03.161Z,57.80
2019-06-27T15:42:29.830Z,58.00
2019-06-27T15:44:56.238Z,58.50
2019-06-27T15:47:22.532Z,58.00
2019-06-27T15:49:48.867Z,58.00
2019-06-27T15:52:15.749Z,57.60
2019-06-27T15:58:11.493Z,57.70
2019-06-27T16:00:39.449Z,57.90
2019-06-27T16:03:05.989Z,57.80
2019-06-27T16:05:33.215Z,58.00
2019-06-27T16:07:59.620Z,58.00
2019-06-27T16:10:26.566Z,58.90
2019-06-27T16:12:52.897Z,57.10
2019-06-27T16:15:19.249Z,56.90
2019-06-27T16:17:45.492Z,57.10
2019-06-27T16:20:13.223Z,56.40
2019-06-27T16:22:39.640Z,57.60
2019-06-27T16:25:06.983Z,57.70
2019-06-27T16:27:33.222Z,57.60
2019-06-27T16:29:59.449Z,57.10
2019-06-27T16:32:25.715Z,57.20
2019-06-27T16:34:51.932Z,57.60
2019-06-27T16:37:18.219Z,56.90
2019-06-27T16:39:44.998Z,56.20
2019-06-27T16:42:11.804Z,56.80
2019-06-27T16:44:38.734Z,57.00
2019-06-27T16:47:05.145Z,57.40
2019-06-27T16:49:31.402Z,57.70
2019-06-27T16:51:57.721Z,58.20
2019-06-27T16:54:23.999Z,58.20
2019-06-27T16:56:50.272Z,59.10
2019-06-27T16:59:16.749Z,58.30
2019-06-27T17:01:43.079Z,58.90
2019-06-27T17:04:09.303Z,59.10
2019-06-27T17:06:42.192Z,58.80
2019-06-27T17:09:05.353Z,59.00
2019-06-27T17:11:32.403Z,59.70
2019-06-27T17:13:58.720Z,60.20
2019-06-27T17:16:25.014Z,61.30
2019-06-27T17:18:51.252Z,61.50
2019-06-27T17:21:18.307Z,61.60
2019-06-27T17:23:44.980Z,62.20
2019-06-27T17:26:12.059Z,62.50
2019-06-27T17:28:38.548Z,62.60
2019-06-27T17:31:04.803Z,62.40
2019-06-27T17:33:31.391Z,62.60
2019-06-27T17:35:58.183Z,62.90
2019-06-27T17:38:24.623Z,63.80
2019-06-27T17:40:50.893Z,62.60
2019-06-27T17:43:17.847Z,60.70
2019-06-27T17:45:44.921Z,60.50
2019-06-27T17:48:11.175Z,60.90
2019-06-27T17:50:37.452Z,60.80
2019-06-27T17:53:03.785Z,59.90
2019-06-27T17:55:30.595Z,60.00
2019-06-27T17:57:59.282Z,59.70
2019-06-27T18:00:25.835Z,59.00
2019-06-27T18:02:52.162Z,59.60
2019-06-27T18:05:18.833Z,59.70
2019-06-27T18:07:45.282Z,59.70
2019-06-27T18:10:12.249Z,60.10
2019-06-27T18:12:38.655Z,59.50
2019-06-27T18:15:06.959Z,59.80
2019-06-27T18:17:34.280Z,59.30
2019-06-27T18:20:00.698Z,59.70
2019-06-27T18:22:27.382Z,59.10
2019-06-27T18:24:54.080Z,59.00
2019-06-27T18:27:20.343Z,58.90
2019-06-27T18:29:48.057Z,59.40
2019-06-27T18:32:14.456Z,60.00
2019-06-27T18:34:40.679Z,60.20
2019-06-27T18:37:07.543Z,60.00
2019-06-27T18:39:33.798Z,59.90
2019-06-27T18:42:00.087Z,59.50
2019-06-27T18:44:26.789Z,59.80
2019-06-27T18:46:53.165Z,58.80
2019-06-27T18:49:21.425Z,58.70
2019-06-27T18:51:47.814Z,59.40
2019-06-27T18:54:14.056Z,58.80
2019-06-27T18:56:40.672Z,59.00
2019-06-27T18:59:06.937Z,58.60
2019-06-27T19:01:33.171Z,59.40
2019-06-27T19:03:59.394Z,59.50
2019-06-27T19:06:25.859Z,59.40
2019-06-27T19:08:52.465Z,59.10
2019-06-27T19:11:18.911Z,58.10
2019-06-27T19:13:45.180Z,56.90
2019-06-27T19:16:11.406Z,58.30
2019-06-27T19:18:44.010Z,57.40
2019-06-27T19:21:15.799Z,56.50
2019-06-27T19:23:46.941Z,56.30
2019-06-27T19:26:13.164Z,56.10
2019-06-27T19:28:39.794Z,55.30
2019-06-27T19:31:06.185Z,54.40
2019-06-27T19:33:32.400Z,54.80
2019-06-27T19:36:03.078Z,54.70
2019-06-27T19:38:27.580Z,54.70
2019-06-27T19:40:54.169Z,54.70
2019-06-27T19:43:27.886Z,55.50
2019-06-27T19:45:48.549Z,55.50
2019-06-27T19:48:14.804Z,55.20
2019-06-27T19:50:41.248Z,55.20
2019-06-27T19:53:08.165Z,54.20
2019-06-27T19:55:37.587Z,54.20
2019-06-27T19:58:04.556Z,54.50
2019-06-27T20:00:32.347Z,54.60
2019-06-27T20:03:01.368Z,54.70
2019-06-27T20:05:27.814Z,54.00
2019-06-27T20:07:54.052Z,54.60
2019-06-27T20:10:20.488Z,54.00
2019-06-27T20:12:46.728Z,54.10
2019-06-27T20:16:21.698Z,54.90
2019-06-27T20:18:47.916Z,53.90
2019-06-27T20:21:14.203Z,53.80
2019-06-27T20:23:40.450Z,53.70
2019-06-27T20:26:06.713Z,54.00
2019-06-27T20:28:32.964Z,54.00
2019-06-27T20:30:59.196Z,53.60
2019-06-27T20:33:25.435Z,53.50
2019-06-27T20:35:51.660Z,54.20
2019-06-27T20:38:33.496Z,54.30
2019-06-27T20:40:46.069Z,54.70
2019-06-27T20:43:12.338Z,54.60
2019-06-27T20:45:38.729Z,54.80
2019-06-27T20:48:05.237Z,55.60
2019-06-27T20:50:31.461Z,54.50
2019-06-27T20:52:57.717Z,54.00
2019-06-27T20:55:24.239Z,54.50
2019-06-27T20:57:50.462Z,55.20
2019-06-27T21:00:19.214Z,55.30
2019-06-27T21:02:45.859Z,55.00
2019-06-27T21:05:12.205Z,55.10
2019-06-27T21:07:38.430Z,55.00
2019-06-27T21:10:08.862Z,54.80
2019-06-27T21:12:35.595Z,54.90
2019-06-27T21:15:24.528Z,54.90
2019-06-27T21:17:51.902Z,55.20
2019-06-27T21:20:29.298Z,55.70
2019-06-27T21:23:01.817Z,56.10
2019-06-27T21:25:28.138Z,56.10
2019-06-27T21:27:54.900Z,56.20
2019-06-27T21:30:22.229Z,56.60
2019-06-27T21:32:49.706Z,56.70
2019-06-27T21:35:16.223Z,56.80
2019-06-27T21:37:43.463Z,56.70
2019-06-27T21:40:10.818Z,56.90
2019-06-27T21:42:37.163Z,57.10
2019-06-27T21:45:04.799Z,57.50
2019-06-27T21:47:39.770Z,57.70
2019-06-27T21:50:15.183Z,57.90
2019-06-27T21:52:42.399Z,57.60
2019-06-27T21:55:09.845Z,58.10
2019-06-27T21:57:40.562Z,58.20
2019-06-27T22:00:11.123Z,58.60
2019-06-27T22:02:37.743Z,58.70
2019-06-27T22:05:13.889Z,58.10
2019-06-27T22:10:27.727Z,58.10
2019-06-27T22:12:56.358Z,57.40
2019-06-27T22:15:25.589Z,58.10
2019-06-27T22:17:55.780Z,57.00
2019-06-27T22:20:25.053Z,56.70
2019-06-27T22:23:09.210Z,56.40
2019-06-27T22:25:39.262Z,56.40
2019-06-27T22:27:52.253Z,53.80
2019-06-27T22:30:18.752Z,54.20
2019-06-27T22:32:45.007Z,53.80
2019-06-27T22:35:12.654Z,53.60
2019-06-27T22:37:38.796Z,52.80
2019-06-27T22:40:26.425Z,52.40
2019-06-27T22:43:11.278Z,52.30
2019-06-27T22:45:55.919Z,52.20
2019-06-27T22:48:22.479Z,52.10
2019-06-27T22:50:51.225Z,52.50
2019-06-27T22:53:23.288Z,52.20
2019-06-27T22:55:50.015Z,51.90
2019-06-27T22:58:16.260Z,52.20
2019-06-27T23:00:43.111Z,52.50
2019-06-27T23:03:09.337Z,52.50
2019-06-27T23:05:35.945Z,51.60
2019-06-27T23:08:02.177Z,51.30
2019-06-27T23:10:28.576Z,50.90
2019-06-27T23:12:54.860Z,50.70
2019-06-27T23:15:21.192Z,50.50
2019-06-27T23:17:47.543Z,50.00
2019-06-27T23:20:14.080Z,50.20
2019-06-27T23:22:40.393Z,50.20
2019-06-27T23:25:08.098Z,51.50
2019-06-27T23:27:34.345Z,50.70
2019-06-27T23:30:01.904Z,51.70
2019-06-27T23:32:28.286Z,51.20
2019-06-27T23:34:54.526Z,51.40
2019-06-27T23:37:20.765Z,51.30
2019-06-27T23:39:47.070Z,50.80
2019-06-27T23:42:13.287Z,50.90
2019-06-27T23:44:39.626Z,51.00
2019-06-27T23:47:05.915Z,51.10
2019-06-27T23:49:32.148Z,52.10
2019-06-27T23:52:03.989Z,52.00
2019-06-27T23:54:41.349Z,51.50
2019-06-27T23:57:13.541Z,51.50
2019-06-27T23:59:45.443Z,51.60
